createdAt,value
2018-11-27T00:01:15.198Z,20.23
2018-11-27T00:03:48.257Z,16.23
2018-11-27T00:06:15.711Z,15.17
2018-11-27T00:08:43.166Z,13.97
2018-11-27T00:11:10.632Z,14.30
2018-11-27T00:13:38.069Z,14.03
2018-11-27T00:16:05.554Z,15.70
2018-11-27T00:18:33.006Z,13.60
2018-11-27T00:21:00.500Z,14.67
2018-11-27T00:23:27.988Z,13.50
2018-11-27T00:25:55.457Z,13.27
2018-11-27T00:28:22.905Z,13.30
2018-11-27T00:30:50.372Z,13.30
2018-11-27T00:33:17.826Z,13.40
2018-11-27T00:35:45.253Z,12.40
2018-11-27T00:38:12.775Z,13.67
2018-11-27T00:40:40.314Z,13.40
2018-11-27T00:43:07.747Z,14.27
2018-11-27T00:45:35.205Z,14.00
2018-11-27T00:48:02.625Z,13.77
2018-11-27T00:50:30.070Z,14.00
2018-11-27T00:52:57.495Z,14.27
2018-11-27T00:55:24.989Z,14.77
2018-11-27T00:57:52.705Z,13.90
2018-11-27T01:00:20.892Z,14.20
2018-11-27T01:02:48.415Z,14.93
2018-11-27T01:05:17.030Z,15.13
2018-11-27T01:07:44.543Z,13.97
2018-11-27T01:10:14.216Z,16.10
2018-11-27T01:12:41.701Z,15.27
2018-11-27T01:15:10.349Z,13.93
2018-11-27T01:17:38.437Z,14.40
2018-11-27T01:20:16.017Z,14.33
2018-11-27T01:22:43.531Z,14.67
2018-11-27T01:25:11.213Z,15.40
2018-11-27T01:27:38.698Z,14.47
2018-11-27T01:30:10.369Z,14.67
2018-11-27T01:32:37.829Z,15.17
2018-11-27T01:35:07.210Z,14.73
2018-11-27T01:37:34.645Z,15.77
2018-11-27T01:40:02.147Z,15.43
2018-11-27T01:42:29.565Z,14.03
2018-11-27T01:44:57.007Z,15.03
2018-11-27T01:47:24.466Z,14.63
2018-11-27T01:49:52.439Z,15.43
2018-11-27T01:52:20.419Z,16.37
2018-11-27T01:54:48.356Z,15.77
2018-11-27T01:57:16.399Z,15.90
2018-11-27T01:59:44.847Z,15.63
2018-11-27T02:02:12.814Z,15.10
2018-11-27T02:04:40.772Z,14.77
2018-11-27T02:07:08.190Z,16.23
2018-11-27T02:09:35.639Z,15.43
2018-11-27T02:12:03.085Z,14.23
2018-11-27T02:14:30.502Z,15.17
2018-11-27T02:16:57.941Z,13.90
2018-11-27T02:19:25.360Z,15.93
2018-11-27T02:21:52.832Z,15.77
2018-11-27T02:24:20.434Z,14.97
2018-11-27T02:26:47.882Z,15.60
2018-11-27T02:29:15.316Z,14.37
2018-11-27T02:31:42.763Z,14.90
2018-11-27T02:34:10.221Z,15.77
2018-11-27T02:36:37.702Z,16.00
2018-11-27T02:39:06.007Z,15.50
2018-11-27T02:41:33.501Z,16.27
2018-11-27T02:44:00.958Z,15.47
2018-11-27T02:46:28.413Z,15.63
2018-11-27T02:48:55.846Z,15.43
2018-11-27T02:51:23.393Z,14.90
2018-11-27T02:53:50.849Z,15.17
2018-11-27T02:56:18.309Z,16.77
2018-11-27T02:58:45.929Z,15.50
2018-11-27T03:01:13.369Z,15.00
2018-11-27T03:03:40.812Z,15.13
2018-11-27T03:06:08.250Z,14.70
2018-11-27T03:08:35.714Z,14.40
2018-11-27T03:11:03.193Z,15.37
2018-11-27T03:13:30.614Z,15.93
2018-11-27T03:15:58.038Z,16.27
2018-11-27T03:18:25.506Z,16.87
2018-11-27T03:20:52.970Z,17.63
2018-11-27T03:23:20.447Z,21.70
2018-11-27T03:25:47.923Z,17.93
2018-11-27T03:28:15.393Z,18.13
2018-11-27T03:30:42.869Z,15.77
2018-11-27T03:33:10.294Z,16.77
2018-11-27T03:35:37.721Z,16.57
2018-11-27T03:38:05.563Z,18.20
2018-11-27T03:40:33.113Z,16.60
2018-11-27T03:43:00.562Z,15.70
2018-11-27T03:45:28.136Z,14.50
2018-11-27T03:47:55.577Z,15.63
2018-11-27T03:50:27.385Z,16.43
2018-11-27T03:52:54.877Z,15.50
2018-11-27T03:55:22.369Z,16.27
2018-11-27T03:57:49.804Z,16.43
2018-11-27T04:00:20.636Z,15.90
2018-11-27T04:02:50.546Z,16.83
2018-11-27T04:05:17.973Z,17.13
2018-11-27T04:07:45.406Z,16.67
2018-11-27T04:10:14.277Z,16.13
2018-11-27T04:12:41.712Z,16.43
2018-11-27T04:15:09.627Z,16.60
2018-11-27T04:17:37.132Z,15.90
2018-11-27T04:20:05.453Z,16.67
2018-11-27T04:22:32.897Z,16.17
2018-11-27T04:25:00.365Z,17.33
2018-11-27T04:27:28.006Z,15.73
2018-11-27T04:29:55.450Z,16.90
2018-11-27T04:32:22.894Z,16.27
2018-11-27T04:34:50.428Z,16.77
2018-11-27T04:37:17.861Z,15.97
2018-11-27T04:39:45.543Z,16.17
2018-11-27T04:42:12.997Z,17.07
2018-11-27T04:44:40.434Z,15.67
2018-11-27T04:47:07.917Z,15.90
2018-11-27T04:49:35.364Z,16.33
2018-11-27T04:52:02.805Z,17.87
2018-11-27T04:54:30.329Z,15.13
2018-11-27T04:56:57.786Z,15.60
2018-11-27T04:59:25.210Z,16.47
2018-11-27T05:01:52.734Z,21.20
2018-11-27T05:04:20.262Z,21.77
2018-11-27T05:06:47.700Z,22.10
2018-11-27T05:09:15.126Z,19.70
2018-11-27T05:11:42.558Z,18.33
2018-11-27T05:14:10.007Z,17.97
2018-11-27T05:16:37.446Z,17.27
2018-11-27T05:19:04.917Z,17.97
2018-11-27T05:21:32.375Z,17.10
2018-11-27T05:23:59.815Z,18.30
2018-11-27T05:26:27.303Z,15.57
2018-11-27T05:28:54.761Z,17.37
2018-11-27T05:31:22.194Z,17.30
2018-11-27T05:33:49.644Z,17.53
2018-11-27T05:36:17.075Z,17.67
2018-11-27T05:38:44.512Z,17.27
2018-11-27T05:41:11.964Z,16.40
2018-11-27T05:43:39.418Z,17.40
2018-11-27T05:46:06.889Z,16.40
2018-11-27T05:48:34.365Z,17.17
2018-11-27T05:51:01.830Z,17.07
2018-11-27T05:53:29.311Z,17.43
2018-11-27T05:55:56.749Z,17.50
2018-11-27T05:58:24.156Z,17.53
2018-11-27T06:00:51.621Z,17.37
2018-11-27T06:03:19.093Z,17.63
2018-11-27T06:05:46.952Z,17.97
2018-11-27T06:08:14.394Z,19.30
2018-11-27T06:10:42.303Z,18.17
2018-11-27T06:13:09.737Z,17.73
2018-11-27T06:15:37.273Z,18.13
2018-11-27T06:18:05.155Z,16.57
2018-11-27T06:20:32.630Z,16.93
2018-11-27T06:23:00.041Z,16.53
2018-11-27T06:25:28.496Z,16.13
2018-11-27T06:27:57.039Z,17.90
2018-11-27T06:30:25.349Z,18.60
2018-11-27T06:32:52.782Z,17.70
2018-11-27T06:35:28.363Z,17.37
2018-11-27T06:37:55.800Z,17.77
2018-11-27T06:40:24.550Z,18.10
2018-11-27T06:42:52.523Z,18.87
2018-11-27T06:45:20.352Z,19.40
2018-11-27T06:47:48.785Z,18.57
2018-11-27T06:50:17.809Z,17.40
2018-11-27T06:52:45.267Z,18.10
2018-11-27T06:55:13.839Z,18.73
2018-11-27T06:57:41.313Z,18.73
2018-11-27T07:00:14.793Z,17.70
2018-11-27T07:02:42.269Z,18.00
2018-11-27T07:05:10.661Z,19.10
2018-11-27T07:07:38.267Z,18.87
2018-11-27T07:10:10.733Z,17.93
2018-11-27T07:12:38.175Z,19.07
2018-11-27T07:15:07.726Z,20.13
2018-11-27T07:17:35.209Z,18.50
2018-11-27T07:20:02.768Z,18.37
2018-11-27T07:22:30.162Z,19.90
2018-11-27T07:24:57.589Z,19.17
2018-11-27T07:27:24.988Z,17.90
2018-11-27T07:29:52.413Z,17.13
2018-11-27T07:32:19.838Z,17.67
2018-11-27T07:34:47.265Z,18.80
2018-11-27T07:37:14.706Z,17.73
2018-11-27T07:39:42.147Z,18.70
2018-11-27T07:42:09.585Z,17.60
2018-11-27T07:44:37.057Z,17.80
2018-11-27T07:47:04.561Z,18.43
2018-11-27T07:49:31.993Z,15.70
2018-11-27T07:51:59.494Z,18.13
2018-11-27T07:54:27.013Z,19.00
2018-11-27T07:56:54.479Z,18.17
2018-11-27T07:59:21.877Z,16.60
2018-11-27T08:01:49.355Z,18.00
2018-11-27T08:04:16.786Z,17.63
2018-11-27T08:06:44.243Z,18.10
2018-11-27T08:09:11.677Z,19.83
2018-11-27T08:11:39.103Z,26.83
2018-11-27T08:14:06.633Z,20.60
2018-11-27T08:16:34.101Z,19.93
2018-11-27T08:19:01.591Z,19.57
2018-11-27T08:21:29.035Z,19.93
2018-11-27T08:23:56.463Z,20.47
2018-11-27T08:26:23.973Z,20.30
2018-11-27T08:28:51.451Z,18.60
2018-11-27T08:31:18.913Z,19.23
2018-11-27T08:33:46.358Z,19.33
2018-11-27T08:36:13.784Z,18.27
2018-11-27T08:38:41.235Z,17.53
2018-11-27T08:41:08.671Z,18.93
2018-11-27T08:43:36.073Z,17.83
2018-11-27T08:46:03.523Z,18.50
2018-11-27T08:48:30.952Z,17.00
2018-11-27T08:50:58.383Z,17.47
2018-11-27T08:53:25.816Z,19.13
2018-11-27T08:55:53.242Z,18.10
2018-11-27T08:58:21.180Z,18.87
2018-11-27T09:00:48.720Z,18.63
2018-11-27T09:03:16.164Z,18.37
2018-11-27T09:05:43.677Z,18.23
2018-11-27T09:08:11.122Z,17.13
2018-11-27T09:10:38.589Z,17.87
2018-11-27T09:13:06.400Z,18.67
2018-11-27T09:15:34.006Z,17.83
2018-11-27T09:18:06.363Z,18.17
2018-11-27T09:20:33.814Z,19.13
2018-11-27T09:23:01.241Z,18.40
2018-11-27T09:25:28.674Z,17.37
2018-11-27T09:27:56.114Z,19.33
2018-11-27T09:30:25.373Z,17.83
2018-11-27T09:32:53.518Z,18.27
2018-11-27T09:35:20.998Z,19.73
2018-11-27T09:37:48.433Z,19.10
2018-11-27T09:40:17.283Z,18.43
2018-11-27T09:42:44.737Z,18.87
2018-11-27T09:45:15.251Z,18.23
2018-11-27T09:47:43.474Z,17.13
2018-11-27T09:50:11.850Z,17.70
2018-11-27T09:52:39.349Z,17.97
2018-11-27T09:55:23.788Z,17.73
2018-11-27T09:57:51.266Z,17.47
2018-11-27T10:00:24.802Z,18.10
2018-11-27T10:02:56.107Z,17.83
2018-11-27T10:05:23.553Z,17.70
2018-11-27T10:07:51.001Z,18.60
2018-11-27T10:10:21.649Z,17.33
2018-11-27T10:12:49.157Z,17.97
2018-11-27T10:15:17.605Z,17.37
2018-11-27T10:17:46.412Z,17.30
2018-11-27T10:20:15.629Z,18.13
2018-11-27T10:22:43.100Z,16.90
2018-11-27T10:25:10.893Z,17.97
2018-11-27T10:27:38.474Z,16.40
2018-11-27T10:30:17.834Z,18.20
2018-11-27T10:32:45.533Z,17.27
2018-11-27T10:35:31.245Z,18.03
2018-11-27T10:37:58.680Z,17.50
2018-11-27T10:40:26.113Z,17.07
2018-11-27T10:42:53.673Z,18.03
2018-11-27T10:45:21.911Z,18.17
2018-11-27T10:47:50.507Z,18.30
2018-11-27T10:50:18.290Z,18.57
2018-11-27T10:52:46.807Z,19.07
2018-11-27T10:55:15.125Z,17.97
2018-11-27T10:57:42.653Z,19.53
2018-11-27T11:00:27.719Z,18.23
2018-11-27T11:03:00.926Z,18.63
2018-11-27T11:05:33.509Z,18.07
2018-11-27T11:08:00.978Z,19.67
2018-11-27T11:10:28.429Z,19.07
2018-11-27T11:12:55.946Z,18.77
2018-11-27T11:15:23.415Z,21.80
2018-11-27T11:17:50.869Z,19.43
2018-11-27T11:20:18.748Z,21.43
2018-11-27T11:22:46.197Z,21.17
2018-11-27T11:25:14.921Z,19.27
2018-11-27T11:27:43.197Z,19.63
2018-11-27T11:30:17.010Z,19.60
2018-11-27T11:32:44.634Z,22.17
2018-11-27T11:35:12.210Z,19.03
2018-11-27T11:37:39.822Z,20.43
2018-11-27T11:40:10.966Z,19.97
2018-11-27T11:42:38.443Z,19.30
2018-11-27T11:45:06.898Z,22.03
2018-11-27T11:47:34.329Z,21.37
2018-11-27T11:50:01.762Z,20.07
2018-11-27T11:52:29.200Z,22.10
2018-11-27T11:54:56.646Z,20.93
2018-11-27T11:57:24.085Z,22.03
2018-11-27T11:59:51.491Z,21.73
2018-11-27T12:02:18.945Z,23.10
2018-11-27T12:04:46.402Z,22.13
2018-11-27T12:07:13.878Z,22.40
2018-11-27T12:09:41.362Z,22.93
2018-11-27T12:12:08.829Z,22.50
2018-11-27T12:14:36.237Z,24.27
2018-11-27T12:17:03.736Z,22.27
2018-11-27T12:19:31.165Z,23.73
2018-11-27T12:21:58.617Z,21.43
2018-11-27T12:24:26.053Z,22.70
2018-11-27T12:26:53.490Z,20.97
2018-11-27T12:29:20.901Z,23.60
2018-11-27T12:31:48.393Z,23.47
2018-11-27T12:34:15.889Z,23.30
2018-11-27T12:36:43.306Z,22.70
2018-11-27T12:39:10.738Z,23.00
2018-11-27T12:41:38.205Z,24.53
2018-11-27T12:44:05.709Z,25.77
2018-11-27T12:46:33.146Z,24.70
2018-11-27T12:49:00.616Z,22.63
2018-11-27T12:51:28.141Z,23.03
2018-11-27T12:53:55.646Z,23.63
2018-11-27T12:56:23.094Z,24.33
2018-11-27T12:58:50.549Z,24.17
2018-11-27T13:01:18.091Z,22.73
2018-11-27T13:03:45.581Z,22.13
2018-11-27T13:06:13.065Z,22.43
2018-11-27T13:08:40.493Z,25.17
2018-11-27T13:11:11.515Z,22.00
2018-11-27T13:13:35.529Z,23.70
2018-11-27T13:16:02.985Z,23.47
2018-11-27T13:18:30.417Z,23.83
2018-11-27T13:20:57.881Z,23.40
2018-11-27T13:23:25.366Z,26.10
2018-11-27T13:25:52.873Z,26.87
2018-11-27T13:28:20.462Z,24.57
2018-11-27T13:30:52.842Z,24.27
2018-11-27T13:34:25.611Z,25.17
2018-11-27T13:36:53.030Z,25.47
2018-11-27T13:39:38.315Z,26.17
2018-11-27T13:42:06.905Z,23.70
2018-11-27T13:44:34.474Z,24.97
2018-11-27T13:47:01.949Z,25.37
2018-11-27T13:49:29.414Z,26.20
2018-11-27T13:51:56.850Z,25.47
2018-11-27T13:54:24.293Z,26.67
2018-11-27T13:56:51.746Z,24.23
2018-11-27T13:59:19.262Z,25.80
2018-11-27T14:01:46.743Z,26.47
2018-11-27T14:04:14.242Z,23.87
2018-11-27T14:06:41.688Z,25.10
2018-11-27T14:09:11.885Z,27.30
2018-11-27T14:11:39.322Z,26.20
2018-11-27T14:14:07.174Z,29.63
2018-11-27T14:16:34.821Z,28.67
2018-11-27T14:19:02.353Z,27.57
2018-11-27T14:21:29.791Z,26.53
2018-11-27T14:23:57.237Z,28.13
2018-11-27T14:26:24.664Z,29.40
2018-11-27T14:28:52.151Z,30.03
2018-11-27T14:31:19.647Z,28.73
2018-11-27T14:33:47.122Z,27.57
2018-11-27T14:36:14.624Z,29.10
2018-11-27T14:38:42.045Z,26.80
2018-11-27T14:41:09.489Z,28.10
2018-11-27T14:43:36.974Z,25.73
2018-11-27T14:46:06.199Z,26.03
2018-11-27T14:48:33.692Z,26.53
2018-11-27T14:51:01.169Z,27.23
2018-11-27T14:53:28.636Z,27.13
2018-11-27T14:55:56.141Z,28.13
2018-11-27T14:58:23.590Z,29.43
2018-11-27T15:00:51.056Z,26.60
2018-11-27T15:03:18.555Z,28.50
2018-11-27T15:05:45.985Z,26.07
2018-11-27T15:08:13.538Z,27.70
2018-11-27T15:10:40.982Z,26.90
2018-11-27T15:13:09.390Z,28.40
2018-11-27T15:15:36.994Z,28.50
2018-11-27T15:18:05.325Z,28.07
2018-11-27T15:20:32.789Z,28.83
2018-11-27T15:23:00.242Z,28.23
2018-11-27T15:25:27.728Z,26.97
2018-11-27T15:27:55.333Z,29.70
2018-11-27T15:30:25.920Z,28.03
2018-11-27T15:32:54.762Z,28.43
2018-11-27T15:35:22.239Z,29.20
2018-11-27T15:37:49.691Z,28.13
2018-11-27T15:40:24.948Z,28.53
2018-11-27T15:42:52.567Z,27.87
2018-11-27T15:45:21.112Z,27.23
2018-11-27T15:47:48.693Z,29.37
2018-11-27T15:50:16.247Z,28.37
2018-11-27T15:52:43.734Z,26.57
2018-11-27T15:55:14.517Z,28.00
2018-11-27T15:57:42.061Z,28.30
2018-11-27T16:00:11.993Z,27.47
2018-11-27T16:02:39.491Z,29.40
2018-11-27T16:05:07.027Z,28.20
2018-11-27T16:07:34.601Z,28.73
2018-11-27T16:10:02.126Z,28.90
2018-11-27T16:12:29.669Z,27.77
2018-11-27T16:14:57.134Z,27.00
2018-11-27T16:17:24.718Z,28.13
2018-11-27T16:19:52.137Z,29.37
2018-11-27T16:22:19.603Z,30.13
2018-11-27T16:24:47.082Z,26.60
2018-11-27T16:27:14.846Z,27.63
2018-11-27T16:29:42.313Z,26.80
2018-11-27T16:32:09.797Z,29.33
2018-11-27T16:34:37.233Z,29.13
2018-11-27T16:37:05.085Z,31.17
2018-11-27T16:39:32.629Z,29.43
2018-11-27T16:42:00.183Z,27.77
2018-11-27T16:44:27.638Z,27.23
2018-11-27T16:46:55.151Z,26.80
2018-11-27T16:49:22.681Z,28.57
2018-11-27T16:51:50.157Z,27.90
2018-11-27T16:54:17.618Z,27.70
2018-11-27T16:56:45.122Z,28.23
2018-11-27T16:59:12.573Z,27.47
2018-11-27T17:01:40.022Z,28.93
2018-11-27T17:04:07.470Z,28.27
2018-11-27T17:06:34.949Z,27.53
2018-11-27T17:09:03.571Z,28.03
2018-11-27T17:11:31.225Z,27.33
2018-11-27T17:13:58.748Z,28.83
2018-11-27T17:16:26.500Z,27.57
2018-11-27T17:18:53.951Z,28.17
2018-11-27T17:21:23.197Z,27.17
2018-11-27T17:23:50.896Z,28.87
2018-11-27T17:26:18.770Z,28.37
2018-11-27T17:28:46.931Z,26.27
2018-11-27T17:31:17.212Z,25.53
2018-11-27T17:34:03.246Z,27.83
2018-11-27T17:36:30.834Z,27.40
2018-11-27T17:38:58.275Z,27.53
2018-11-27T17:41:25.753Z,28.43
2018-11-27T17:43:53.642Z,29.00
2018-11-27T17:46:20.796Z,31.27
2018-11-27T17:48:48.309Z,30.50
2018-11-27T17:51:15.848Z,26.97
2018-11-27T17:53:43.330Z,28.53
2018-11-27T17:56:10.807Z,29.63
2018-11-27T17:58:38.250Z,26.67
2018-11-27T18:01:05.785Z,28.63
2018-11-27T18:03:33.267Z,28.37
2018-11-27T18:06:00.712Z,27.53
2018-11-27T18:08:28.175Z,28.20
2018-11-27T18:10:55.664Z,27.10
2018-11-27T18:13:23.118Z,27.73
2018-11-27T18:15:50.602Z,25.77
2018-11-27T18:18:18.022Z,26.57
2018-11-27T18:20:45.533Z,26.63
2018-11-27T18:23:13.026Z,28.80
2018-11-27T18:25:40.471Z,49.27
2018-11-27T18:28:07.931Z,33.57
2018-11-27T18:30:35.370Z,29.47
2018-11-27T18:33:02.868Z,29.07
2018-11-27T18:35:30.341Z,26.83
2018-11-27T18:37:57.853Z,29.77
2018-11-27T18:40:25.309Z,27.77
2018-11-27T18:42:52.790Z,28.37
2018-11-27T18:45:24.539Z,27.43
2018-11-27T18:47:52.013Z,28.50
2018-11-27T18:50:20.034Z,25.03
2018-11-27T18:52:47.589Z,27.23
2018-11-27T18:55:15.463Z,26.67
2018-11-27T18:57:43.741Z,27.53
2018-11-27T19:00:22.813Z,26.73
2018-11-27T19:02:50.327Z,27.07
2018-11-27T19:05:17.845Z,28.57
2018-11-27T19:07:45.380Z,27.83
2018-11-27T19:10:15.807Z,27.03
2018-11-27T19:12:43.356Z,29.57
2018-11-27T19:15:13.358Z,31.37
2018-11-27T19:17:41.579Z,28.40
2018-11-27T19:20:12.005Z,30.97
2018-11-27T19:22:39.529Z,30.83
2018-11-27T19:25:10.082Z,41.60
2018-11-27T19:27:37.672Z,37.07
2018-11-27T19:30:09.805Z,36.37
2018-11-27T19:32:37.287Z,37.20
2018-11-27T19:35:06.087Z,32.30
2018-11-27T19:37:33.553Z,35.73
2018-11-27T19:40:01.665Z,34.03
2018-11-27T19:42:29.104Z,36.47
2018-11-27T19:44:56.563Z,28.57
2018-11-27T19:47:24.055Z,27.57
2018-11-27T19:49:51.542Z,26.60
2018-11-27T19:52:19.174Z,28.13
2018-11-27T19:54:46.665Z,24.87
2018-11-27T19:57:14.222Z,26.53
2018-11-27T19:59:41.709Z,24.97
2018-11-27T20:02:09.178Z,26.83
2018-11-27T20:04:36.644Z,29.03
2018-11-27T20:07:06.228Z,27.30
2018-11-27T20:09:33.783Z,27.60
2018-11-27T20:12:01.279Z,28.47
2018-11-27T20:14:28.763Z,27.87
2018-11-27T20:16:56.387Z,30.33
2018-11-27T20:19:23.873Z,30.37
2018-11-27T20:21:51.461Z,34.83
2018-11-27T20:24:18.942Z,30.83
2018-11-27T20:26:46.732Z,29.17
2018-11-27T20:29:14.496Z,27.60
2018-11-27T20:31:41.986Z,27.93
2018-11-27T20:34:09.601Z,27.27
2018-11-27T20:36:37.244Z,26.33
2018-11-27T20:39:14.928Z,25.93
2018-11-27T20:41:42.705Z,26.53
2018-11-27T20:44:12.972Z,27.57
2018-11-27T20:46:40.443Z,28.33
2018-11-27T20:49:07.887Z,25.93
2018-11-27T20:54:34.275Z,26.80
2018-11-27T20:57:02.393Z,26.20
2018-11-27T20:59:29.831Z,27.07
2018-11-27T21:01:57.338Z,26.63
2018-11-27T21:04:24.773Z,27.37
2018-11-27T21:06:52.267Z,27.13
2018-11-27T21:09:19.755Z,25.60
2018-11-27T21:11:49.338Z,24.80
2018-11-27T21:14:16.814Z,26.83
2018-11-27T21:16:44.257Z,25.70
2018-11-27T21:19:13.958Z,26.60
2018-11-27T21:21:41.471Z,26.87
2018-11-27T21:24:09.065Z,24.93
2018-11-27T21:26:36.602Z,27.63
2018-11-27T21:29:04.558Z,27.43
2018-11-27T21:31:32.017Z,27.47
2018-11-27T21:33:59.497Z,27.87
2018-11-27T21:36:34.993Z,27.63
2018-11-27T21:39:05.055Z,29.60
2018-11-27T21:41:38.054Z,27.83
2018-11-27T21:44:05.521Z,28.47
2018-11-27T21:46:32.966Z,28.53
2018-11-27T21:49:00.409Z,28.40
2018-11-27T21:51:27.865Z,27.70
2018-11-27T21:53:55.584Z,27.77
2018-11-27T21:56:23.089Z,25.20
2018-11-27T21:58:50.550Z,26.27
2018-11-27T22:01:18.004Z,28.33
2018-11-27T22:03:45.626Z,27.33
2018-11-27T22:06:13.155Z,29.30
2018-11-27T22:08:49.358Z,30.13
2018-11-27T22:11:17.279Z,27.17
2018-11-27T22:13:44.731Z,29.10
2018-11-27T22:16:12.297Z,28.43
2018-11-27T22:18:39.885Z,27.97
2018-11-27T22:21:07.483Z,29.40
2018-11-27T22:23:35.277Z,29.33
2018-11-27T22:26:02.733Z,28.10
2018-11-27T22:28:30.571Z,28.37
2018-11-27T22:30:58.214Z,27.00
2018-11-27T22:33:25.789Z,28.13
2018-11-27T22:35:53.344Z,26.83
2018-11-27T22:38:20.958Z,27.43
2018-11-27T22:40:48.650Z,26.83
2018-11-27T22:43:19.120Z,27.53
2018-11-27T22:45:46.665Z,27.17
2018-11-27T22:48:14.169Z,29.47
2018-11-27T22:50:41.685Z,28.57
2018-11-27T22:53:09.241Z,28.03
2018-11-27T22:55:36.713Z,28.03
2018-11-27T22:58:05.542Z,27.57
2018-11-27T23:00:38.771Z,28.23
2018-11-27T23:03:06.265Z,27.00
2018-11-27T23:05:33.693Z,28.33
2018-11-27T23:08:01.196Z,28.57
2018-11-27T23:10:31.540Z,28.10
2018-11-27T23:12:59.079Z,26.33
2018-11-27T23:15:26.576Z,27.73
2018-11-27T23:17:54.165Z,26.57
2018-11-27T23:20:21.647Z,30.47
2018-11-27T23:22:49.098Z,25.77
2018-11-27T23:25:17.411Z,25.67
2018-11-27T23:27:44.887Z,25.17
2018-11-27T23:30:19.502Z,26.33
2018-11-27T23:32:47.020Z,26.87
2018-11-27T23:35:14.503Z,25.53
2018-11-27T23:37:42.025Z,25.80
2018-11-27T23:40:11.214Z,26.10
2018-11-27T23:42:38.881Z,26.30
2018-11-27T23:45:10.681Z,26.03
2018-11-27T23:47:38.243Z,25.70
2018-11-27T23:50:07.326Z,27.00
2018-11-27T23:52:34.781Z,27.27
2018-11-27T23:55:02.285Z,25.47
2018-11-27T23:57:29.767Z,27.43
2018-11-27T23:59:57.242Z,27.20
